createdAt,value
2023-04-14T00:00:15.416Z,80.50
2023-04-14T00:02:19.709Z,80.60
2023-04-14T00:04:22.742Z,80.30
2023-04-14T00:06:27.266Z,80.30
2023-04-14T00:08:30.056Z,80.50
2023-04-14T00:10:32.836Z,80.90
2023-04-14T00:12:35.668Z,81.00
2023-04-14T00:14:38.440Z,80.90
2023-04-14T00:16:42.861Z,80.70
2023-04-14T00:18:47.046Z,80.80
2023-04-14T00:20:49.778Z,82.30
2023-04-14T00:22:52.530Z,82.90
2023-04-14T00:24:55.335Z,84.00
2023-04-14T00:26:58.484Z,84.50
2023-04-14T00:29:01.450Z,84.80
2023-04-14T00:31:04.522Z,84.90
2023-04-14T00:33:07.413Z,84.60
2023-04-14T00:35:11.600Z,84.30
2023-04-14T00:37:14.372Z,82.70
2023-04-14T00:39:17.188Z,82.20
2023-04-14T00:41:19.982Z,81.90
2023-04-14T00:43:22.746Z,81.30
2023-04-14T00:45:27.330Z,81.00
2023-04-14T00:47:30.179Z,80.40
2023-04-14T00:49:33.180Z,80.40
2023-04-14T00:51:37.993Z,80.10
2023-04-14T00:53:41.562Z,79.80
2023-04-14T00:55:44.723Z,79.50
2023-04-14T00:57:48.053Z,79.40
2023-04-14T00:59:51.049Z,79.20
2023-04-14T01:01:54.753Z,79.10
2023-04-14T01:03:58.967Z,79.30
2023-04-14T01:06:02.084Z,79.00
2023-04-14T01:08:06.432Z,79.20
2023-04-14T01:10:10.115Z,79.70
2023-04-14T01:12:23.514Z,81.30
2023-04-14T01:14:36.345Z,81.90
2023-04-14T01:16:41.859Z,83.10
2023-04-14T01:18:54.002Z,83.40
2023-04-14T01:21:07.306Z,83.80
2023-04-14T01:23:16.733Z,84.20
2023-04-14T01:25:49.776Z,84.20
2023-04-14T01:28:06.091Z,83.40
2023-04-14T01:30:26.989Z,82.80
2023-04-14T01:32:34.858Z,84.90
2023-04-14T01:34:45.844Z,85.80
2023-04-14T01:36:54.531Z,86.60
2023-04-14T01:38:58.809Z,87.10
2023-04-14T01:41:05.615Z,86.90
2023-04-14T01:43:12.789Z,86.30
2023-04-14T01:45:20.480Z,85.90
2023-04-14T01:47:25.213Z,85.90
2023-04-14T01:49:32.827Z,86.70
2023-04-14T01:51:36.730Z,86.80
2023-04-14T01:53:42.805Z,86.80
2023-04-14T01:55:47.391Z,86.70
2023-04-14T01:57:52.899Z,86.80
2023-04-14T02:00:00.612Z,85.10
2023-04-14T02:02:05.918Z,84.10
2023-04-14T02:04:09.882Z,83.80
2023-04-14T02:06:15.424Z,83.90
2023-04-14T02:08:20.279Z,83.70
2023-04-14T02:10:24.480Z,83.20
2023-04-14T02:12:29.200Z,82.50
2023-04-14T02:14:34.334Z,82.60
2023-04-14T02:16:39.136Z,83.00
2023-04-14T02:18:42.590Z,83.50
2023-04-14T02:20:48.437Z,83.40
2023-04-14T02:22:52.672Z,83.50
2023-04-14T02:24:55.879Z,83.70
2023-04-14T02:27:04.069Z,83.70
2023-04-14T02:29:12.885Z,83.30
2023-04-14T02:31:21.417Z,83.10
2023-04-14T02:33:29.447Z,82.60
2023-04-14T02:35:39.856Z,82.30
2023-04-14T02:37:48.546Z,82.20
2023-04-14T02:39:57.691Z,82.20
2023-04-14T02:42:06.045Z,82.70
2023-04-14T02:44:18.896Z,83.60
2023-04-14T02:46:24.894Z,84.40
2023-04-14T02:48:30.748Z,84.70
2023-04-14T02:50:34.978Z,86.20
2023-04-14T02:52:39.785Z,87.00
2023-04-14T02:54:44.028Z,85.90
2023-04-14T02:56:48.936Z,85.40
2023-04-14T02:58:52.509Z,85.30
2023-04-14T03:00:56.035Z,85.10
2023-04-14T03:03:00.940Z,85.30
2023-04-14T03:05:05.292Z,85.20
2023-04-14T03:07:09.683Z,84.90
2023-04-14T03:09:13.324Z,84.20
2023-04-14T03:11:17.758Z,83.60
2023-04-14T03:13:24.952Z,83.10
2023-04-14T03:15:28.108Z,83.00
2023-04-14T03:17:32.994Z,82.00
2023-04-14T03:19:37.994Z,82.80
2023-04-14T03:21:40.916Z,83.10
2023-04-14T03:23:45.363Z,82.80
2023-04-14T03:25:49.526Z,82.60
2023-04-14T03:27:54.109Z,82.60
2023-04-14T03:30:03.290Z,82.50
2023-04-14T03:32:08.069Z,82.20
2023-04-14T03:34:15.342Z,82.80
2023-04-14T03:36:19.002Z,83.10
2023-04-14T03:38:23.857Z,83.40
2023-04-14T03:40:30.945Z,84.00
2023-04-14T03:42:36.751Z,84.80
2023-04-14T03:44:43.084Z,86.30
2023-04-14T03:46:49.222Z,87.50
2023-04-14T03:48:53.607Z,88.30
2023-04-14T03:50:57.776Z,88.60
2023-04-14T03:53:01.050Z,88.60
2023-04-14T03:55:07.265Z,89.10
2023-04-14T03:57:12.806Z,89.70
2023-04-14T03:59:19.102Z,90.00
2023-04-14T04:01:25.680Z,90.10
2023-04-14T04:03:30.981Z,90.10
2023-04-14T04:05:35.434Z,90.10
2023-04-14T04:07:39.804Z,90.10
2023-04-14T04:09:44.380Z,89.80
2023-04-14T04:11:49.966Z,89.00
2023-04-14T04:13:53.808Z,88.80
2023-04-14T04:15:56.793Z,89.20
2023-04-14T04:18:01.179Z,88.20
2023-04-14T04:20:08.835Z,88.10
2023-04-14T04:22:15.342Z,87.70
2023-04-14T04:24:20.926Z,87.30
2023-04-14T04:26:25.750Z,86.60
2023-04-14T04:28:28.900Z,85.90
2023-04-14T04:30:33.337Z,85.60
2023-04-14T04:32:37.499Z,85.40
2023-04-14T04:34:40.597Z,85.20
2023-04-14T04:36:45.617Z,85.00
2023-04-14T04:38:49.837Z,84.70
2023-04-14T04:40:52.652Z,84.70
2023-04-14T04:42:55.535Z,84.30
2023-04-14T04:44:58.694Z,84.40
2023-04-14T04:47:02.054Z,84.40
2023-04-14T04:49:04.980Z,84.30
2023-04-14T04:51:08.955Z,84.30
2023-04-14T04:53:13.956Z,84.30
2023-04-14T04:55:16.990Z,84.00
2023-04-14T04:57:19.767Z,84.00
2023-04-14T04:59:22.953Z,84.10
2023-04-14T05:01:25.846Z,83.90
2023-04-14T05:03:28.678Z,84.40
2023-04-14T05:05:31.619Z,83.90
2023-04-14T05:07:34.476Z,84.10
2023-04-14T05:09:40.429Z,84.10
2023-04-14T05:11:43.226Z,84.00
2023-04-14T05:13:47.735Z,84.20
2023-04-14T05:15:50.566Z,84.10
2023-04-14T05:17:53.819Z,83.70
2023-04-14T05:19:57.537Z,83.90
2023-04-14T05:22:00.379Z,84.00
2023-04-14T05:24:04.249Z,83.90
2023-04-14T05:26:31.052Z,84.10
2023-04-14T05:28:31.926Z,84.10
2023-04-14T05:30:37.003Z,84.20
2023-04-14T05:32:39.765Z,84.10
2023-04-14T05:34:42.808Z,84.30
2023-04-14T05:36:45.552Z,84.40
2023-04-14T05:38:48.317Z,84.30
2023-04-14T05:40:51.460Z,84.40
2023-04-14T05:42:57.048Z,84.50
2023-04-14T05:45:00.056Z,84.60
2023-04-14T05:47:02.934Z,84.60
2023-04-14T05:49:06.570Z,84.30
2023-04-14T05:51:09.325Z,84.10
2023-04-14T05:53:12.842Z,84.60
2023-04-14T05:55:15.866Z,84.60
2023-04-14T05:57:19.135Z,84.80
2023-04-14T05:59:23.293Z,85.10
2023-04-14T06:01:26.023Z,85.40
2023-04-14T06:03:31.342Z,85.80
2023-04-14T06:05:34.704Z,85.90
2023-04-14T06:07:38.622Z,86.30
2023-04-14T06:09:42.653Z,86.50
2023-04-14T06:11:45.748Z,86.10
2023-04-14T06:13:48.694Z,86.30
2023-04-14T06:15:56.152Z,86.70
2023-04-14T06:17:59.125Z,86.80
2023-04-14T06:20:02.313Z,86.80
2023-04-14T06:22:05.492Z,86.80
2023-04-14T06:24:08.829Z,86.80
2023-04-14T06:26:12.527Z,86.80
2023-04-14T06:28:15.364Z,86.80
2023-04-14T06:30:18.494Z,87.00
2023-04-14T06:32:22.820Z,87.00
2023-04-14T06:34:25.732Z,87.20
2023-04-14T06:36:28.763Z,87.10
2023-04-14T06:38:31.573Z,87.20
2023-04-14T06:40:34.351Z,87.00
2023-04-14T06:42:37.159Z,86.80
2023-04-14T06:44:40.824Z,88.00
2023-04-14T06:46:43.651Z,88.40
2023-04-14T06:48:47.800Z,87.80
2023-04-14T06:50:55.222Z,86.90
2023-04-14T06:52:58.006Z,87.60
2023-04-14T06:55:00.841Z,87.40
2023-04-14T06:57:04.172Z,87.90
2023-04-14T06:59:07.058Z,88.30
2023-04-14T07:01:09.955Z,88.10
2023-04-14T07:03:12.959Z,88.50
2023-04-14T07:05:18.564Z,88.40
2023-04-14T07:07:21.244Z,88.60
2023-04-14T07:09:24.663Z,87.80
2023-04-14T07:11:27.520Z,87.00
2023-04-14T07:13:30.739Z,87.10
2023-04-14T07:15:33.569Z,87.70
2023-04-14T07:17:37.398Z,87.10
2023-04-14T07:19:40.279Z,87.90
2023-04-14T07:21:45.563Z,88.80
2023-04-14T07:23:48.851Z,88.20
2023-04-14T07:25:52.722Z,88.00
2023-04-14T07:28:03.208Z,87.60
2023-04-14T07:30:07.862Z,87.70
2023-04-14T07:32:11.990Z,88.60
2023-04-14T07:34:14.889Z,88.70
2023-04-14T07:36:17.682Z,88.60
2023-04-14T07:38:21.855Z,88.30
2023-04-14T07:40:24.630Z,88.40
2023-04-14T07:42:27.817Z,88.80
2023-04-14T07:44:30.634Z,87.10
2023-04-14T07:46:33.422Z,87.20
2023-04-14T07:48:37.924Z,86.30
2023-04-14T07:50:45.821Z,86.80
2023-04-14T07:52:48.630Z,87.70
2023-04-14T07:54:52.777Z,89.00
2023-04-14T07:56:55.977Z,88.70
2023-04-14T07:58:59.272Z,88.60
2023-04-14T08:01:02.436Z,88.10
2023-04-14T08:03:05.390Z,87.40
2023-04-14T08:05:08.633Z,85.70
2023-04-14T08:07:11.508Z,86.30
2023-04-14T08:09:14.774Z,86.00
2023-04-14T08:11:18.954Z,84.30
2023-04-14T08:13:21.747Z,85.70
2023-04-14T08:15:24.503Z,85.10
2023-04-14T08:17:27.355Z,86.20
2023-04-14T08:19:31.479Z,85.60
2023-04-14T08:21:34.370Z,81.90
2023-04-14T08:23:39.600Z,82.60
2023-04-14T08:25:42.510Z,84.40
2023-04-14T08:27:46.609Z,83.70
2023-04-14T08:29:51.318Z,84.30
2023-04-14T08:31:54.444Z,82.90
2023-04-14T08:33:57.386Z,83.00
2023-04-14T08:36:00.894Z,83.30
2023-04-14T08:38:03.816Z,84.50
2023-04-14T08:40:10.976Z,83.00
2023-04-14T08:42:16.739Z,81.70
2023-04-14T08:44:20.975Z,82.00
2023-04-14T08:46:27.201Z,83.20
2023-04-14T08:48:32.038Z,83.40
2023-04-14T08:50:39.124Z,83.00
2023-04-14T08:52:43.166Z,80.50
2023-04-14T08:54:51.310Z,82.00
2023-04-14T08:56:55.081Z,82.30
2023-04-14T08:58:57.943Z,81.80
2023-04-14T09:01:03.214Z,81.40
2023-04-14T09:03:06.821Z,80.20
2023-04-14T09:05:11.617Z,79.70
2023-04-14T09:07:15.345Z,79.90
2023-04-14T09:09:20.015Z,79.40
2023-04-14T09:11:23.651Z,80.50
2023-04-14T09:13:28.446Z,81.80
2023-04-14T09:15:32.307Z,82.00
2023-04-14T09:17:37.755Z,82.40
2023-04-14T09:20:36.434Z,82.70
2023-04-14T09:22:03.693Z,82.80
2023-04-14T09:24:07.319Z,81.90
2023-04-14T09:26:11.481Z,80.10
2023-04-14T09:28:14.831Z,80.80
2023-04-14T09:30:18.418Z,82.30
2023-04-14T09:32:22.897Z,82.40
2023-04-14T09:34:27.180Z,82.00
2023-04-14T09:36:31.393Z,81.60
2023-04-14T09:38:35.705Z,81.90
2023-04-14T09:40:39.792Z,81.40
2023-04-14T09:42:43.769Z,79.90
2023-04-14T09:44:54.984Z,79.60
2023-04-14T09:47:02.165Z,79.20
2023-04-14T09:49:07.168Z,79.50
2023-04-14T09:51:11.661Z,78.30
2023-04-14T09:53:14.456Z,77.20
2023-04-14T09:55:17.869Z,79.30
2023-04-14T09:57:26.600Z,78.70
2023-04-14T09:59:34.296Z,79.10
2023-04-14T10:01:37.305Z,78.00
2023-04-14T10:03:41.390Z,80.00
2023-04-14T10:05:48.072Z,78.00
2023-04-14T10:07:52.246Z,79.50
2023-04-14T10:09:55.009Z,77.00
2023-04-14T10:12:12.232Z,75.90
2023-04-14T10:14:15.313Z,74.80
2023-04-14T10:16:18.509Z,75.50
2023-04-14T10:18:22.136Z,76.40
2023-04-14T10:20:26.901Z,74.10
2023-04-14T10:22:31.061Z,73.40
2023-04-14T10:24:36.011Z,74.20
2023-04-14T10:26:38.752Z,72.00
2023-04-14T10:28:44.950Z,73.60
2023-04-14T10:30:48.569Z,73.00
2023-04-14T10:32:51.909Z,71.80
2023-04-14T10:34:59.253Z,70.10
2023-04-14T10:37:14.302Z,70.30
2023-04-14T10:39:22.892Z,73.80
2023-04-14T10:41:27.155Z,71.10
2023-04-14T10:43:29.928Z,71.10
2023-04-14T10:45:33.045Z,70.30
2023-04-14T10:47:40.860Z,70.70
2023-04-14T10:49:45.473Z,72.20
2023-04-14T10:51:50.059Z,69.70
2023-04-14T10:53:57.406Z,69.90
2023-04-14T10:56:04.752Z,68.70
2023-04-14T10:58:09.014Z,72.10
2023-04-14T11:00:28.749Z,71.40
2023-04-14T11:02:33.525Z,69.80
2023-04-14T11:04:59.744Z,70.20
2023-04-14T11:07:10.118Z,69.20
2023-04-14T11:09:27.336Z,70.90
2023-04-14T11:11:30.305Z,69.90
2023-04-14T11:13:38.599Z,69.80
2023-04-14T11:15:45.659Z,68.00
2023-04-14T11:17:49.036Z,70.30
2023-04-14T11:19:55.161Z,69.20
2023-04-14T11:21:58.046Z,69.40
2023-04-14T11:24:01.772Z,68.60
2023-04-14T11:26:07.034Z,69.60
2023-04-14T11:28:10.466Z,70.80
2023-04-14T11:30:17.554Z,71.90
2023-04-14T11:32:20.458Z,69.40
2023-04-14T11:34:26.519Z,63.70
2023-04-14T11:36:29.511Z,67.80
2023-04-14T11:38:35.501Z,63.60
2023-04-14T11:40:38.531Z,66.50
2023-04-14T11:42:46.817Z,66.00
2023-04-14T11:44:58.028Z,66.60
2023-04-14T11:47:02.419Z,64.90
2023-04-14T11:49:05.961Z,62.60
2023-04-14T11:51:08.716Z,63.20
2023-04-14T11:53:13.425Z,64.90
2023-04-14T11:55:16.442Z,65.30
2023-04-14T11:57:19.252Z,63.80
2023-04-14T11:59:22.163Z,63.90
2023-04-14T12:01:25.136Z,65.40
2023-04-14T12:03:31.664Z,66.30
2023-04-14T12:05:35.593Z,65.70
2023-04-14T12:07:38.542Z,66.00
2023-04-14T12:09:44.708Z,65.90
2023-04-14T12:11:55.054Z,64.00
2023-04-14T12:13:58.728Z,62.50
2023-04-14T12:16:01.754Z,62.10
2023-04-14T12:18:08.661Z,62.30
2023-04-14T12:20:18.855Z,64.40
2023-04-14T12:22:26.239Z,64.40
2023-04-14T12:24:35.033Z,63.20
2023-04-14T12:26:38.037Z,64.90
2023-04-14T12:28:42.283Z,66.30
2023-04-14T12:30:53.137Z,66.50
2023-04-14T12:32:56.478Z,65.80
2023-04-14T12:35:01.118Z,68.10
2023-04-14T12:37:09.780Z,68.50
2023-04-14T12:39:13.029Z,67.60
2023-04-14T12:41:23.010Z,67.30
2023-04-14T12:43:30.272Z,68.40
2023-04-14T12:45:41.675Z,64.90
2023-04-14T12:47:54.083Z,65.10
2023-04-14T12:49:57.238Z,62.60
2023-04-14T12:52:00.136Z,62.20
2023-04-14T12:54:09.045Z,63.50
2023-04-14T12:56:13.160Z,61.20
2023-04-14T12:58:16.653Z,61.80
2023-04-14T13:00:19.678Z,60.80
2023-04-14T13:02:23.339Z,60.30
2023-04-14T13:04:26.283Z,61.90
2023-04-14T13:06:30.057Z,62.30
2023-04-14T13:08:32.846Z,61.20
2023-04-14T13:10:36.889Z,61.90
2023-04-14T13:12:40.364Z,62.70
2023-04-14T13:14:43.153Z,61.90
2023-04-14T13:16:49.410Z,62.10
2023-04-14T13:18:52.163Z,62.30
2023-04-14T13:20:55.490Z,61.90
2023-04-14T13:22:58.275Z,59.70
2023-04-14T13:25:01.132Z,61.10
2023-04-14T13:27:05.379Z,62.20
2023-04-14T13:29:08.455Z,62.50
2023-04-14T13:31:13.012Z,62.30
2023-04-14T13:33:16.252Z,61.00
2023-04-14T13:35:19.187Z,62.00
2023-04-14T13:37:22.285Z,59.90
2023-04-14T13:39:25.224Z,60.20
2023-04-14T13:41:28.032Z,61.10
2023-04-14T13:43:33.397Z,60.30
2023-04-14T13:45:37.051Z,59.90
2023-04-14T13:47:39.944Z,60.40
2023-04-14T13:49:42.914Z,60.70
2023-04-14T13:51:45.989Z,61.20
2023-04-14T13:53:48.826Z,60.70
2023-04-14T13:55:51.896Z,61.50
2023-04-14T13:57:55.196Z,61.10
2023-04-14T13:59:59.647Z,59.50
2023-04-14T14:02:02.895Z,60.60
2023-04-14T14:04:06.006Z,61.10
2023-04-14T14:06:08.940Z,61.00
2023-04-14T14:08:12.011Z,59.70
2023-04-14T14:10:14.846Z,59.80
2023-04-14T14:12:18.256Z,60.70
2023-04-14T14:14:21.080Z,60.30
2023-04-14T14:18:33.927Z,59.70
2023-04-14T14:20:36.735Z,59.30
2023-04-14T14:22:39.841Z,60.90
2023-04-14T14:24:42.643Z,61.50
2023-04-14T14:26:45.712Z,60.50
2023-04-14T14:28:48.595Z,60.50
2023-04-14T14:30:51.462Z,60.00
2023-04-14T14:32:55.690Z,59.10
2023-04-14T14:34:59.256Z,60.00
2023-04-14T14:37:01.999Z,59.40
2023-04-14T14:39:04.946Z,57.90
2023-04-14T14:41:07.990Z,58.30
2023-04-14T14:43:11.245Z,59.00
2023-04-14T14:45:14.386Z,58.40
2023-04-14T14:47:17.382Z,58.50
2023-04-14T14:49:22.098Z,57.40
2023-04-14T14:51:25.751Z,56.20
2023-04-14T14:53:28.794Z,58.70
2023-04-14T14:55:32.232Z,58.10
2023-04-14T14:57:35.188Z,57.80
2023-04-14T14:59:38.754Z,58.10
2023-04-14T15:01:41.878Z,58.10
2023-04-14T15:03:45.703Z,58.40
2023-04-14T15:05:52.630Z,58.90
2023-04-14T15:07:57.043Z,59.10
2023-04-14T15:10:01.516Z,58.90
2023-04-14T15:12:04.772Z,59.10
2023-04-14T15:14:07.602Z,59.70
2023-04-14T15:16:10.753Z,60.20
2023-04-14T15:18:13.637Z,60.70
2023-04-14T15:20:17.106Z,60.80
2023-04-14T15:22:21.722Z,60.30
2023-04-14T15:24:24.469Z,60.90
2023-04-14T15:26:27.545Z,61.50
2023-04-14T15:28:30.687Z,61.60
2023-04-14T15:30:33.435Z,61.30
2023-04-14T15:32:36.411Z,62.00
2023-04-14T15:34:39.263Z,62.20
2023-04-14T15:36:42.314Z,62.50
2023-04-14T15:38:47.108Z,62.80
2023-04-14T15:40:50.149Z,63.40
2023-04-14T15:42:53.945Z,63.50
2023-04-14T15:44:56.965Z,64.30
2023-04-14T15:47:02.632Z,65.10
2023-04-14T15:49:05.489Z,65.70
2023-04-14T15:51:08.630Z,66.30
2023-04-14T15:53:13.126Z,66.70
2023-04-14T15:55:17.762Z,67.30
2023-04-14T15:57:21.242Z,67.60
2023-04-14T15:59:24.961Z,67.70
2023-04-14T16:01:27.869Z,68.40
2023-04-14T16:03:31.052Z,68.40
2023-04-14T16:05:33.951Z,69.00
2023-04-14T16:07:37.997Z,69.20
2023-04-14T16:09:40.915Z,69.00
2023-04-14T16:11:45.016Z,68.40
2023-04-14T16:13:48.875Z,67.20
2023-04-14T16:15:51.823Z,66.50
2023-04-14T16:17:54.874Z,66.90
2023-04-14T16:19:57.752Z,67.00
2023-04-14T16:22:01.052Z,66.80
2023-04-14T16:24:04.016Z,66.40
2023-04-14T16:26:08.099Z,66.50
2023-04-14T16:28:12.450Z,67.10
2023-04-14T16:30:15.281Z,66.60
2023-04-14T16:32:19.166Z,66.30
2023-04-14T16:34:22.125Z,66.00
2023-04-14T16:36:26.262Z,66.20
2023-04-14T16:38:29.109Z,66.10
2023-04-14T16:40:32.005Z,66.10
2023-04-14T16:42:34.964Z,65.90
2023-04-14T16:44:39.126Z,66.20
2023-04-14T16:46:41.919Z,66.50
2023-04-14T16:48:44.850Z,66.90
2023-04-14T16:50:48.587Z,67.00
2023-04-14T16:52:52.479Z,67.30
2023-04-14T16:54:55.467Z,67.50
2023-04-14T16:56:58.353Z,67.30
2023-04-14T16:59:01.562Z,67.10
2023-04-14T17:01:07.415Z,67.10
2023-04-14T17:03:10.596Z,67.30
2023-04-14T17:05:15.972Z,67.60
2023-04-14T17:07:19.197Z,68.00
2023-04-14T17:09:22.112Z,68.20
2023-04-14T17:11:25.537Z,68.40
2023-04-14T17:13:29.032Z,68.60
2023-04-14T17:15:32.362Z,68.90
2023-04-14T17:17:36.842Z,69.00
2023-04-14T17:19:40.030Z,69.10
2023-04-14T17:21:44.615Z,69.40
2023-04-14T17:23:47.933Z,69.50
2023-04-14T17:25:53.006Z,69.60
2023-04-14T17:27:56.447Z,69.80
2023-04-14T17:29:59.344Z,69.60
2023-04-14T17:32:03.241Z,69.80
2023-04-14T17:34:10.728Z,69.90
2023-04-14T17:36:16.552Z,69.90
2023-04-14T17:38:19.349Z,70.10
2023-04-14T17:40:22.831Z,70.10
2023-04-14T17:42:26.546Z,70.30
2023-04-14T17:44:32.944Z,70.40
2023-04-14T17:46:35.752Z,70.50
2023-04-14T17:48:38.585Z,70.60
2023-04-14T17:50:43.025Z,70.60
2023-04-14T17:52:46.507Z,70.70
2023-04-14T17:54:50.144Z,70.70
2023-04-14T17:56:54.241Z,70.90
2023-04-14T17:58:57.590Z,71.10
2023-04-14T18:01:00.537Z,71.20
2023-04-14T18:03:04.153Z,71.30
2023-04-14T18:05:08.071Z,71.60
2023-04-14T18:07:12.859Z,71.90
2023-04-14T18:09:15.774Z,72.10
2023-04-14T18:11:20.797Z,72.30
2023-04-14T18:13:23.740Z,72.40
2023-04-14T18:15:27.211Z,72.60
2023-04-14T18:17:30.152Z,72.70
2023-04-14T18:19:33.353Z,72.70
2023-04-14T18:21:38.350Z,72.70
2023-04-14T18:23:43.206Z,72.90
2023-04-14T18:29:58.487Z,73.30
2023-04-14T18:32:01.295Z,73.30
2023-04-14T18:34:05.059Z,73.30
2023-04-14T18:36:08.004Z,73.40
2023-04-14T18:38:11.518Z,73.60
2023-04-14T18:40:15.844Z,74.50
2023-04-14T18:42:18.776Z,74.80
2023-04-14T18:44:21.518Z,74.80
2023-04-14T18:46:24.302Z,74.70
2023-04-14T18:48:27.654Z,75.30
2023-04-14T18:50:30.654Z,75.00
2023-04-14T18:52:33.378Z,74.70
2023-04-14T18:54:36.254Z,74.70
2023-04-14T18:56:43.217Z,74.60
2023-04-14T18:58:46.172Z,74.60
2023-04-14T19:00:49.518Z,74.50
2023-04-14T19:02:52.361Z,74.70
2023-04-14T19:04:56.121Z,75.10
2023-04-14T19:06:59.360Z,75.20
2023-04-14T19:09:04.341Z,75.80
2023-04-14T19:11:07.939Z,76.00
2023-04-14T19:13:12.187Z,75.80
2023-04-14T19:15:14.994Z,76.00
2023-04-14T19:17:17.740Z,75.70
2023-04-14T19:19:20.525Z,75.60
2023-04-14T19:21:23.977Z,75.30
2023-04-14T19:23:26.723Z,75.00
2023-04-14T19:25:30.532Z,74.80
2023-04-14T19:27:35.948Z,75.30
2023-04-14T19:29:40.367Z,75.60
2023-04-14T19:31:43.188Z,75.60
2023-04-14T19:33:46.135Z,75.40
2023-04-14T19:35:51.235Z,75.50
2023-04-14T19:37:55.812Z,75.40
2023-04-14T19:39:58.857Z,75.50
2023-04-14T19:42:02.006Z,75.30
2023-04-14T19:44:05.148Z,75.30
2023-04-14T19:46:10.562Z,75.40
2023-04-14T19:48:22.734Z,75.90
2023-04-14T19:50:26.989Z,76.10
2023-04-14T19:52:30.020Z,75.90
2023-04-14T19:54:34.506Z,76.00
2023-04-14T19:56:37.956Z,75.80
2023-04-14T19:58:42.020Z,75.80
2023-04-14T20:00:46.023Z,75.90
2023-04-14T20:02:50.580Z,76.20
2023-04-14T20:04:54.379Z,76.50
2023-04-14T20:06:57.255Z,76.10
2023-04-14T20:09:02.017Z,76.20
2023-04-14T20:11:05.115Z,76.40
2023-04-14T20:13:08.036Z,76.30
2023-04-14T20:15:11.410Z,76.20
2023-04-14T20:17:14.149Z,75.90
2023-04-14T20:19:18.572Z,75.80
2023-04-14T20:21:21.829Z,75.70
2023-04-14T20:23:24.759Z,75.60
2023-04-14T20:25:28.291Z,75.60
2023-04-14T20:27:31.642Z,75.50
2023-04-14T20:29:35.705Z,75.40
2023-04-14T20:31:41.619Z,75.30
2023-04-14T20:33:44.728Z,75.40
2023-04-14T20:35:51.628Z,75.30
2023-04-14T20:37:54.390Z,75.60
2023-04-14T20:39:57.162Z,75.50
2023-04-14T20:42:00.199Z,75.50
2023-04-14T20:44:03.437Z,75.50
2023-04-14T20:46:06.351Z,75.60
2023-04-14T20:48:09.472Z,75.70
2023-04-14T20:50:12.367Z,76.00
2023-04-14T20:52:18.754Z,76.20
2023-04-14T20:54:22.053Z,76.30
2023-04-14T20:56:27.980Z,75.90
2023-04-14T20:58:30.994Z,75.70
2023-04-14T21:00:35.651Z,75.70
2023-04-14T21:02:40.122Z,76.20
2023-04-14T21:04:42.969Z,76.10
2023-04-14T21:06:45.786Z,76.00
2023-04-14T21:08:49.892Z,75.90
2023-04-14T21:11:15.241Z,75.80
2023-04-14T21:15:40.681Z,75.50
2023-04-14T21:15:56.433Z,75.40
2023-04-14T21:17:59.777Z,75.20
2023-04-14T21:20:03.972Z,76.00
2023-04-14T21:22:08.100Z,75.50
2023-04-14T21:24:13.679Z,76.00
2023-04-14T21:26:16.668Z,76.50
2023-04-14T21:28:20.721Z,76.50
2023-04-14T21:30:23.838Z,76.60
2023-04-14T21:32:27.330Z,76.70
2023-04-14T21:34:30.592Z,76.40
2023-04-14T21:36:33.340Z,76.60
2023-04-14T21:38:36.515Z,76.80
2023-04-14T21:40:40.650Z,77.70
2023-04-14T21:42:43.564Z,77.00
2023-04-14T21:44:47.022Z,77.10
2023-04-14T21:46:49.834Z,76.90
2023-04-14T21:48:54.626Z,76.90
2023-04-14T21:50:57.602Z,76.80
2023-04-14T21:53:00.652Z,76.70
2023-04-14T21:55:03.379Z,76.60
2023-04-14T21:57:07.464Z,76.40
2023-04-14T21:59:10.245Z,76.40
2023-04-14T22:01:13.188Z,76.40
2023-04-14T22:03:16.248Z,76.40
2023-04-14T22:05:19.805Z,76.40
2023-04-14T22:07:22.793Z,76.50
2023-04-14T22:09:27.162Z,76.60
2023-04-14T22:11:30.873Z,76.70
2023-04-14T22:13:35.076Z,76.70
2023-04-14T22:15:38.275Z,76.90
2023-04-14T22:17:42.893Z,76.90
2023-04-14T22:19:46.155Z,77.00
2023-04-14T22:21:49.953Z,77.30
2023-04-14T22:23:52.680Z,79.30
2023-04-14T22:25:57.397Z,79.90
2023-04-14T22:28:00.156Z,79.80
2023-04-14T22:30:05.802Z,79.50
2023-04-14T22:32:08.553Z,79.40
2023-04-14T22:34:12.747Z,79.10
2023-04-14T22:36:15.587Z,79.10
2023-04-14T22:38:18.645Z,78.90
2023-04-14T22:40:22.042Z,78.80
2023-04-14T22:42:25.864Z,77.50
2023-04-14T22:44:28.687Z,77.50
2023-04-14T22:46:32.879Z,77.60
2023-04-14T22:48:35.702Z,77.80
2023-04-14T22:50:38.496Z,77.90
2023-04-14T22:52:41.424Z,79.70
2023-04-14T22:54:44.808Z,80.40
2023-04-14T22:56:48.262Z,81.00
2023-04-14T22:58:53.560Z,81.00
2023-04-14T23:00:56.356Z,81.30
2023-04-14T23:03:00.705Z,81.00
2023-04-14T23:05:04.121Z,81.30
2023-04-14T23:07:07.040Z,81.50
2023-04-14T23:09:09.980Z,81.40
2023-04-14T23:11:12.877Z,81.50
2023-04-14T23:13:15.681Z,81.90
2023-04-14T23:15:20.053Z,82.70
2023-04-14T23:17:25.486Z,83.00
2023-04-14T23:19:29.757Z,83.30
2023-04-14T23:21:32.646Z,83.20
2023-04-14T23:23:35.807Z,83.60
2023-04-14T23:25:39.272Z,83.90
2023-04-14T23:27:42.042Z,83.70
2023-04-14T23:29:45.130Z,83.30
2023-04-14T23:31:48.254Z,83.00
2023-04-14T23:33:53.734Z,83.00
2023-04-14T23:35:58.120Z,83.00
2023-04-14T23:38:02.347Z,83.40
2023-04-14T23:40:06.117Z,83.90
2023-04-14T23:42:09.243Z,84.30
2023-04-14T23:44:12.052Z,84.10
2023-04-14T23:46:14.849Z,83.90
2023-04-14T23:48:18.531Z,83.80
2023-04-14T23:50:21.488Z,83.50
2023-04-14T23:52:25.927Z,83.00
2023-04-14T23:54:30.770Z,82.60
2023-04-14T23:56:33.615Z,82.10
2023-04-14T23:58:37.031Z,82.20
